Map

Track Data

SID SEASON NUMBER BASIN SUBBASIN NAME ISO_TIME NATURE LAT LON WMO_WIND WMO_PRES WMO_AGENCY TRACK_TYPE DIST2LAND LANDFALL IFLAG USA_AGENCY USA_ATCF_ID USA_LAT USA_LON USA_RECORD USA_STATUS USA_WIND USA_PRES USA_SSHS USA_R34_NE USA_R34_SE USA_R34_SW USA_R34_NW USA_R50_NE USA_R50_SE USA_R50_SW USA_R50_NW USA_R64_NE USA_R64_SE USA_R64_SW USA_R64_NW USA_POCI USA_ROCI USA_RMW USA_EYE TOKYO_LAT TOKYO_LON TOKYO_GRADE TOKYO_WIND TOKYO_PRES TOKYO_R50_DIR TOKYO_R50_LONG TOKYO_R50_SHORT TOKYO_R30_DIR TOKYO_R30_LONG TOKYO_R30_SHORT TOKYO_LAND CMA_LAT CMA_LON CMA_CAT CMA_WIND CMA_PRES HKO_LAT HKO_LON HKO_CAT HKO_WIND HKO_PRES NEWDELHI_LAT NEWDELHI_LON NEWDELHI_GRADE NEWDELHI_WIND NEWDELHI_PRES NEWDELHI_CI NEWDELHI_DP NEWDELHI_POCI REUNION_LAT REUNION_LON REUNION_TYPE REUNION_WIND REUNION_PRES REUNION_TNUM REUNION_CI REUNION_RMW REUNION_R34_NE REUNION_R34_SE REUNION_R34_SW REUNION_R34_NW REUNION_R50_NE REUNION_R50_SE REUNION_R50_SW REUNION_R50_NW REUNION_R64_NE REUNION_R64_SE REUNION_R64_SW REUNION_R64_NW BOM_LAT BOM_LON BOM_TYPE BOM_WIND BOM_PRES BOM_TNUM BOM_CI BOM_RMW BOM_R34_NE BOM_R34_SE BOM_R34_SW BOM_R34_NW BOM_R50_NE BOM_R50_SE BOM_R50_SW BOM_R50_NW BOM_R64_NE BOM_R64_SE BOM_R64_SW BOM_R64_NW BOM_ROCI BOM_POCI BOM_EYE BOM_POS_METHOD BOM_PRES_METHOD NADI_LAT NADI_LON NADI_CAT NADI_WIND NADI_PRES WELLINGTON_LAT WELLINGTON_LON WELLINGTON_WIND WELLINGTON_PRES DS824_LAT DS824_LON DS824_STAGE DS824_WIND DS824_PRES TD9636_LAT TD9636_LON TD9636_STAGE TD9636_WIND TD9636_PRES TD9635_LAT TD9635_LON TD9635_WIND TD9635_PRES TD9635_ROCI NEUMANN_LAT NEUMANN_LON NEUMANN_CLASS NEUMANN_WIND NEUMANN_PRES MLC_LAT MLC_LON MLC_CLASS MLC_WIND MLC_PRES USA_GUST BOM_GUST BOM_GUST_PER REUNION_GUST REUNION_GUST_PER USA_SEAHGT USA_SEARAD_NE USA_SEARAD_SE USA_SEARAD_SW USA_SEARAD_NW STORM_SPEED STORM_DIR
1909257N18289 1909 49 NA CS NOT_NAMED 1909-09-13 12:00:00 TS 17.5000 -71.0000 30 hurdat_atl main 43 0 O_____________ hurdat_atl AL091909 17.5000 -71.0000 TD 30 -1 15 282
1909257N18289 1909 49 NA CS NOT_NAMED 1909-09-13 15:00:00 TS 17.6481 -71.7573 main 30 23 P_____________ AL091909 17.6481 -71.7573 TD 30 -1 15 282
1909257N18289 1909 49 NA CS NOT_NAMED 1909-09-13 18:00:00 TS 17.8000 -72.5000 30 hurdat_atl main 44 22 O_____________ hurdat_atl AL091909 17.8000 -72.5000 TD 30 -1 14 283
1909257N18289 1909 49 NA CS NOT_NAMED 1909-09-13 21:00:00 TS 17.9572 -73.2150 main 22 0 P_____________ AL091909 17.9572 -73.2150 TD 30 -1 14 283
1909257N18289 1909 49 NA CS NOT_NAMED 1909-09-14 00:00:00 TS 18.1000 -73.9000 30 hurdat_atl main 0 0 O_____________ hurdat_atl AL091909 18.1000 -73.9000 TD 30 -1 13 281
1909257N18289 1909 49 NA CS NOT_NAMED 1909-09-14 03:00:00 TS 18.2072 -74.5577 main 23 23 P_____________ AL091909 18.2072 -74.5577 TD 30 -1 13 279
1909257N18289 1909 49 NA CS NOT_NAMED 1909-09-14 06:00:00 TS 18.3000 -75.2000 30 hurdat_atl main 74 57 O_____________ hurdat_atl AL091909 18.3000 -75.2000 TD 30 -1 13 279
1909257N18289 1909 49 NA CS NOT_NAMED 1909-09-14 09:00:00 TS 18.4000 -75.8725 main 47 24 P_____________ AL091909 18.4000 -75.8725 TD 30 -1 13 279
1909257N18289 1909 49 NA CS NOT_NAMED 1909-09-14 12:00:00 TS 18.5000 -76.5000 30 hurdat_atl main 33 15 O_____________ hurdat_atl AL091909 18.5000 -76.5000 TD 30 -1 11 280
1909257N18289 1909 49 NA CS NOT_NAMED 1909-09-14 15:00:00 TS 18.5997 -77.0301 main 22 22 P_____________ AL091909 18.5997 -77.0301 TD 30 -1 10 282
1909257N18289 1909 49 NA CS NOT_NAMED 1909-09-14 18:00:00 TS 18.7000 -77.5000 30 hurdat_atl main 33 33 O_____________ hurdat_atl AL091909 18.7000 -77.5000 TD 30 -1 9 283
1909257N18289 1909 49 NA CS NOT_NAMED 1909-09-14 21:00:00 TS 18.7998 -77.9576 main 44 44 P_____________ AL091909 18.7998 -77.9576 TD 32 -1 9 283
1909257N18289 1909 49 NA CS NOT_NAMED 1909-09-15 00:00:00 TS 18.9000 -78.4000 35 hurdat_atl main 56 56 O_____________ hurdat_atl AL091909 18.9000 -78.4000 TS 35 0 9 283
1909257N18289 1909 49 NA CS NOT_NAMED 1909-09-15 03:00:00 TS 19.0000 -78.8650 main 92 92 P_____________ AL091909 19.0000 -78.8650 TS 37 0 9 283
1909257N18289 1909 49 NA CS NOT_NAMED 1909-09-15 06:00:00 TS 19.1000 -79.3000 40 hurdat_atl main 131 131 O_____________ hurdat_atl AL091909 19.1000 -79.3000 TS 40 0 8 285
1909257N18289 1909 49 NA CS NOT_NAMED 1909-09-15 09:00:00 TS 19.1999 -79.6726 main 172 172 P_____________ AL091909 19.1999 -79.6726 TS 42 0 7 287
1909257N18289 1909 49 NA CS NOT_NAMED 1909-09-15 12:00:00 TS 19.3000 -80.0000 45 hurdat_atl main 205 205 O_____________ hurdat_atl AL091909 19.3000 -80.0000 TS 45 0 6 289
1909257N18289 1909 49 NA CS NOT_NAMED 1909-09-15 15:00:00 TS 19.4075 -80.3225 main 238 238 P_____________ AL091909 19.4075 -80.3225 TS 47 0 6 289
1909257N18289 1909 49 NA CS NOT_NAMED 1909-09-15 18:00:00 TS 19.5000 -80.6000 50 hurdat_atl main 253 253 O_____________ hurdat_atl AL091909 19.5000 -80.6000 TS 50 0 5 286
1909257N18289 1909 49 NA CS NOT_NAMED 1909-09-15 21:00:00 TS 19.5424 -80.8076 main 259 249 P_____________ AL091909 19.5424 -80.8076 TS 52 0 4 285
1909257N18289 1909 49 NA CS NOT_NAMED 1909-09-16 00:00:00 TS 19.6000 -81.0000 55 hurdat_atl main 256 251 O_____________ hurdat_atl AL091909 19.6000 -81.0000 TS 55 0 5 294
1909257N18289 1909 49 NA CS NOT_NAMED 1909-09-16 03:00:00 TS 19.7275 -81.2425 main 251 215 P_____________ AL091909 19.7275 -81.2425 TS 57 0 6 303
1909257N18289 1909 49 NA CS NOT_NAMED 1909-09-16 06:00:00 TS 19.9000 -81.5000 60 hurdat_atl main 215 184 O_____________ hurdat_atl AL091909 19.9000 -81.5000 TS 60 0 6 308
1909257N18289 1909 49 NA CS NOT_NAMED 1909-09-16 09:00:00 TS 20.1000 -81.7575 main 178 148 P_____________ AL091909 20.1000 -81.7575 TS 62 0 6 310
1909257N18289 1909 49 NA CS NOT_NAMED 1909-09-16 12:00:00 TS 20.3000 -82.0000 65 hurdat_atl main 148 128 O_____________ hurdat_atl AL091909 20.3000 -82.0000 HU 65 1 5 311
1909257N18289 1909 49 NA CS NOT_NAMED 1909-09-16 15:00:00 TS 20.4574 -82.2001 main 118 98 P_____________ AL091909 20.4574 -82.2001 HU 67 1 5 309
1909257N18289 1909 49 NA CS NOT_NAMED 1909-09-16 18:00:00 TS 20.6000 -82.4000 70 hurdat_atl main 98 80 O_____________ hurdat_atl AL091909 20.6000 -82.4000 HU 70 1 5 304
1909257N18289 1909 49 NA CS NOT_NAMED 1909-09-16 21:00:00 TS 20.7425 -82.6500 main 78 55 P_____________ AL091909 20.7425 -82.6500 HU 70 1 6 303
1909257N18289 1909 49 NA CS NOT_NAMED 1909-09-17 00:00:00 TS 20.9000 -82.9000 70 hurdat_atl main 56 45 O_____________ hurdat_atl AL091909 20.9000 -82.9000 HU 70 1 6 309
1909257N18289 1909 49 NA CS NOT_NAMED 1909-09-17 03:00:00 TS 21.0924 -83.1076 main 45 38 P_____________ AL091909 21.0924 -83.1076 HU 72 1 5 317
1909257N18289 1909 49 NA CS NOT_NAMED 1909-09-17 06:00:00 TS 21.3000 -83.3000 75 hurdat_atl main 38 38 O_____________ hurdat_atl AL091909 21.3000 -83.3000 HU 75 1 6 319
1909257N18289 1909 49 NA CS NOT_NAMED 1909-09-17 09:00:00 TS 21.5074 -83.4926 main 51 38 P_____________ AL091909 21.5074 -83.4926 HU 77 1 5 317
1909257N18289 1909 49 NA CS NOT_NAMED 1909-09-17 12:00:00 TS 21.7000 -83.7000 80 hurdat_atl main 38 15 O_____________ hurdat_atl AL091909 21.7000 -83.7000 HU 80 1 6 309
1909257N18289 1909 49 NA CS NOT_NAMED 1909-09-17 15:00:00 TS 21.8576 -83.9575 main 0 0 P_____________ AL091909 21.8576 -83.9575 HU 82 1 6 303
1909257N18289 1909 49 NA NA NOT_NAMED 1909-09-17 18:00:00 TS 22.0000 -84.2000 85 976 hurdat_atl main 0 0 O_____________ hurdat_atl AL091909 22.0000 -84.2000 HU 85 976 2 5 308
1909257N18289 1909 49 NA GM NOT_NAMED 1909-09-17 21:00:00 TS 22.1499 -84.3576 main 10 0 P_____________ AL091909 22.1499 -84.3576 HU 80 1 4 317
1909257N18289 1909 49 NA GM NOT_NAMED 1909-09-18 00:00:00 TS 22.3000 -84.5000 75 hurdat_atl main 10 10 O_____________ hurdat_atl AL091909 22.3000 -84.5000 HU 75 1 4 315
1909257N18289 1909 49 NA GM NOT_NAMED 1909-09-18 03:00:00 TS 22.4500 -84.6850 main 32 32 P_____________ AL091909 22.4500 -84.6850 HU 77 1 5 309
1909257N18289 1909 49 NA GM NOT_NAMED 1909-09-18 06:00:00 TS 22.6000 -84.9000 80 hurdat_atl main 61 61 O_____________ hurdat_atl AL091909 22.6000 -84.9000 HU 80 1 5 305
1909257N18289 1909 49 NA GM NOT_NAMED 1909-09-18 09:00:00 TS 22.7500 -85.1425 main 84 84 P_____________ AL091909 22.7500 -85.1425 HU 80 1 6 303
1909257N18289 1909 49 NA GM NOT_NAMED 1909-09-18 12:00:00 TS 22.9000 -85.4000 80 hurdat_atl main 119 119 O_____________ hurdat_atl AL091909 22.9000 -85.4000 HU 80 1 5 304
1909257N18289 1909 49 NA GM NOT_NAMED 1909-09-18 15:00:00 TS 23.0498 -85.6276 main 137 137 P_____________ AL091909 23.0498 -85.6276 HU 82 1 6 303
1909257N18289 1909 49 NA GM NOT_NAMED 1909-09-18 18:00:00 TS 23.2000 -85.9000 85 hurdat_atl main 172 172 O_____________ hurdat_atl AL091909 23.2000 -85.9000 HU 85 2 7 296
1909257N18289 1909 49 NA GM NOT_NAMED 1909-09-18 21:00:00 TS 23.3426 -86.2851 main 205 205 P_____________ AL091909 23.3426 -86.2851 HU 90 2 8 292
1909257N18289 1909 49 NA GM NOT_NAMED 1909-09-19 00:00:00 TS 23.5000 -86.7000 95 hurdat_atl main 225 224 O_____________ hurdat_atl AL091909 23.5000 -86.7000 HU 95 2 8 296
1909257N18289 1909 49 NA GM NOT_NAMED 1909-09-19 03:00:00 TS 23.6924 -87.0650 main 245 245 P_____________ AL091909 23.6924 -87.0650 HU 100 3 8 302
1909257N18289 1909 49 NA GM NOT_NAMED 1909-09-19 06:00:00 TS 23.9000 -87.4000 105 hurdat_atl main 270 269 O_____________ hurdat_atl AL091909 23.9000 -87.4000 HU 105 3 7 304
1909257N18289 1909 49 NA GM NOT_NAMED 1909-09-19 09:00:00 TS 24.0924 -87.7151 main 290 290 P_____________ AL091909 24.0924 -87.7151 HU 105 3 7 306
1909257N18289 1909 49 NA GM NOT_NAMED 1909-09-19 12:00:00 TS 24.3000 -88.0000 105 hurdat_atl main 312 312 O_____________ hurdat_atl AL091909 24.3000 -88.0000 HU 105 3 7 312
1909257N18289 1909 49 NA GM NOT_NAMED 1909-09-19 15:00:00 TS 24.5349 -88.2576 main 335 335 P_____________ AL091909 24.5349 -88.2576 HU 105 3 7 318
1909257N18289 1909 49 NA GM NOT_NAMED 1909-09-19 18:00:00 TS 24.8000 -88.5000 105 hurdat_atl main 368 368 O_____________ hurdat_atl AL091909 24.8000 -88.5000 HU 105 3 7 321
1909257N18289 1909 49 NA GM NOT_NAMED 1909-09-19 21:00:00 TS 25.0850 -88.7501 main 402 402 P_____________ AL091909 25.0850 -88.7501 HU 105 3 8 323
1909257N18289 1909 49 NA GM NOT_NAMED 1909-09-20 00:00:00 TS 25.4000 -89.0000 105 hurdat_atl main 402 368 O_____________ hurdat_atl AL091909 25.4000 -89.0000 HU 105 3 8 326
1909257N18289 1909 49 NA GM NOT_NAMED 1909-09-20 03:00:00 TS 25.7349 -89.2427 main 368 326 P_____________ AL091909 25.7349 -89.2427 HU 105 3 8 327
1909257N18289 1909 49 NA GM NOT_NAMED 1909-09-20 06:00:00 TS 26.1000 -89.5000 105 hurdat_atl main 326 287 O_____________ hurdat_atl AL091909 26.1000 -89.5000 HU 105 3 9 327
1909257N18289 1909 49 NA GM NOT_NAMED 1909-09-20 09:00:00 TS 26.4925 -89.7926 main 287 245 P_____________ AL091909 26.4925 -89.7926 HU 105 3 10 326
1909257N18289 1909 49 NA GM NOT_NAMED 1909-09-20 12:00:00 TS 26.9000 -90.1000 105 hurdat_atl main 245 213 O_____________ hurdat_atl AL091909 26.9000 -90.1000 HU 105 3 9 323
1909257N18289 1909 49 NA GM NOT_NAMED 1909-09-20 15:00:00 TS 27.2250 -90.4009 main 213 156 P_____________ AL091909 27.2250 -90.4009 HU 102 3 10 326
1909257N18289 1909 49 NA GM NOT_NAMED 1909-09-20 18:00:00 TS 27.7000 -90.7000 100 hurdat_atl main 156 67 O_____________ hurdat_atl AL091909 27.7000 -90.7000 HU 100 3 14 337
1909257N18289 1909 49 NA GM NOT_NAMED 1909-09-20 21:00:00 TS 28.5176 -91.0146 main 67 0 P_____________ AL091909 28.5176 -91.0146 HU 100 3 19 344
1909257N18289 1909 49 NA GM NOT_NAMED 1909-09-21 00:00:00 TS 29.5000 -91.3000 100 952 hurdat_atl main 0 0 O_____________ hurdat_atl AL091909 29.5000 -91.3000 L HU 100 952 3 20 346
1909257N18289 1909 49 NA NA NOT_NAMED 1909-09-21 03:00:00 TS 30.4500 -91.5594 main 0 0 P_____________ AL091909 30.4500 -91.5594 HU 87 2 19 350
1909257N18289 1909 49 NA NA NOT_NAMED 1909-09-21 06:00:00 TS 31.4000 -91.7000 75 hurdat_atl main 0 0 O_____________ hurdat_atl AL091909 31.4000 -91.7000 HU 75 1 19 358
1909257N18289 1909 49 NA NA NOT_NAMED 1909-09-21 09:00:00 TS 32.3075 -91.6461 main 0 0 P_____________ AL091909 32.3075 -91.6461 HU 65 1 18 5
1909257N18289 1909 49 NA NA NOT_NAMED 1909-09-21 12:00:00 TS 33.2000 -91.5000 55 hurdat_atl main 0 0 O_____________ hurdat_atl AL091909 33.2000 -91.5000 TS 55 0 18 7
1909257N18289 1909 49 NA NA NOT_NAMED 1909-09-21 15:00:00 TS 34.1000 -91.3998 main 0 0 P_____________ AL091909 34.1000 -91.3998 TS 47 0 18 5
1909257N18289 1909 49 NA NA NOT_NAMED 1909-09-21 18:00:00 TS 35.0000 -91.3000 40 hurdat_atl main 0 0 O_____________ hurdat_atl AL091909 35.0000 -91.3000 TS 40 0 18 5
1909257N18289 1909 49 NA NA NOT_NAMED 1909-09-21 21:00:00 TS 35.9000 -91.2005 main 0 0 P_____________ AL091909 35.9000 -91.2005 TS 35 0 18 5
1909257N18289 1909 49 NA NA NOT_NAMED 1909-09-22 00:00:00 TS 36.8000 -91.1000 30 hurdat_atl main 0 O_____________ hurdat_atl AL091909 36.8000 -91.1000 TD 30 -1 18 5

About IBTrACS Database

This database is a web-friendly format of International Best Track Archive for Climate Stewardship (IBTrACS), a global best track data archive curated by NOAA dating back to 1842.

Updated: 2021-11-26